Time,TemperatureF,DewpointF,PressureIn,WindDirection,WindDirectionDegrees,WindSpeedMPH,WindSpeedGustMPH,Humidity,HourlyPrecipIn,Conditions,Clouds,dailyrainin,SoftwareType,DateUTC
2013-02-10 00:02:00,43.9,41.4,29.85,SE,135,0.0,-999.0,91,-99.99,,,0.00,Acu-Link.com,2013-02-10 06:02:00,
2013-02-10 00:17:00,43.7,41.2,29.84,SE,135,0.0,-999.0,91,-99.99,,,0.00,Acu-Link.com,2013-02-10 06:17:00,
2013-02-10 00:32:00,43.7,41.2,29.84,SE,135,0.0,-999.0,91,-99.99,,,0.00,Acu-Link.com,2013-02-10 06:32:00,
2013-02-10 00:47:00,43.9,41.2,29.83,SE,135,0.0,-999.0,90,-99.99,,,0.00,Acu-Link.com,2013-02-10 06:47:00,
2013-02-10 01:02:00,43.9,40.9,29.82,SE,135,0.0,-999.0,89,-99.99,,,0.00,Acu-Link.com,2013-02-10 07:02:00,
2013-02-10 01:17:00,44.2,41.2,29.83,SE,135,0.0,-999.0,89,-99.99,,,0.00,Acu-Link.com,2013-02-10 07:17:00,
2013-02-10 01:32:00,45.3,41.7,29.83,SSE,157,4.7,-999.0,87,-99.99,,,0.00,Acu-Link.com,2013-02-10 07:32:00,
2013-02-10 01:48:00,46.0,41.7,29.82,SSE,157,6.3,-999.0,85,-99.99,,,0.00,Acu-Link.com,2013-02-10 07:48:00,
2013-02-10 02:03:00,47.3,42.1,29.82,South,180,7.8,-999.0,82,-99.99,,,0.00,Acu-Link.com,2013-02-10 08:03:00,
2013-02-10 02:18:00,47.8,42.6,29.82,SSE,157,6.3,-999.0,82,-99.99,,,0.00,Acu-Link.com,2013-02-10 08:18:00,
2013-02-10 02:33:00,47.8,43.5,29.82,SSE,157,9.4,-999.0,85,-99.99,,,0.00,Acu-Link.com,2013-02-10 08:33:00,
2013-02-10 02:48:00,48.0,44.0,29.82,SSE,157,8.9,-999.0,86,-99.99,,,0.00,Acu-Link.com,2013-02-10 08:48:00,
2013-02-10 03:19:00,46.8,46.5,29.84,South,180,0.0,-999.0,99,-99.99,,,0.00,Acu-Link.com,2013-02-10 09:19:00,
2013-02-10 03:34:00,46.2,45.9,29.82,SSE,157,4.2,-999.0,99,-99.99,,,0.00,Acu-Link.com,2013-02-10 09:34:00,
2013-02-10 03:50:00,46.0,45.7,29.82,SSE,157,5.3,-999.0,99,-99.99,,,0.00,Acu-Link.com,2013-02-10 09:50:00,
2013-02-10 04:05:00,46.6,46.3,29.80,SE,135,10.4,-999.0,99,-99.99,,,0.00,Acu-Link.com,2013-02-10 10:05:00,
2013-02-10 04:20:00,47.5,47.2,29.79,SE,135,10.4,-999.0,99,-99.99,,,0.00,Acu-Link.com,2013-02-10 10:20:00,
2013-02-10 04:35:00,47.7,47.4,29.77,ESE,112,10.4,-999.0,99,-99.99,,,0.00,Acu-Link.com,2013-02-10 10:35:00,
2013-02-10 04:50:00,47.8,47.3,29.78,SE,135,7.8,-999.0,98,-99.99,,,0.00,Acu-Link.com,2013-02-10 10:50:00,
2013-02-10 05:05:00,48.2,47.1,29.78,SE,135,9.4,-999.0,96,-99.99,,,0.00,Acu-Link.com,2013-02-10 11:05:00,
2013-02-10 05:20:00,48.2,47.7,29.78,SE,135,4.7,-999.0,98,-99.99,,,0.00,Acu-Link.com,2013-02-10 11:20:00,
2013-02-10 05:36:00,48.0,47.2,29.79,SE,135,6.3,-999.0,97,-99.99,,,0.00,Acu-Link.com,2013-02-10 11:36:00,
2013-02-10 05:51:00,48.2,46.8,29.78,SE,135,6.8,-999.0,95,-99.99,,,0.00,Acu-Link.com,2013-02-10 11:51:00,
2013-02-10 06:06:00,48.0,46.9,29.76,SE,135,6.8,-999.0,96,-99.99,,,0.00,Acu-Link.com,2013-02-10 12:06:00,
2013-02-10 06:21:00,47.5,46.7,29.77,SE,135,7.8,-999.0,97,-99.99,,,0.00,Acu-Link.com,2013-02-10 12:21:00,
2013-02-10 06:36:00,48.9,47.0,29.77,SSE,157,10.9,-999.0,93,-99.99,,,0.00,Acu-Link.com,2013-02-10 12:36:00,
2013-02-10 06:51:00,49.5,47.3,29.76,SE,135,8.3,-999.0,92,-99.99,,,0.00,Acu-Link.com,2013-02-10 12:51:00,
2013-02-10 07:06:00,50.0,47.2,29.77,SSE,157,6.3,-999.0,90,-99.99,,,0.00,Acu-Link.com,2013-02-10 13:06:00,
2013-02-10 07:21:00,51.1,47.7,29.77,SSE,157,8.3,-999.0,88,-99.99,,,0.00,Acu-Link.com,2013-02-10 13:21:00,
2013-02-10 07:36:00,51.8,47.7,29.77,SSE,157,7.8,-999.0,86,-99.99,,,0.00,Acu-Link.com,2013-02-10 13:36:00,
2013-02-10 07:52:00,52.0,47.9,29.76,SE,135,10.4,-999.0,86,-99.99,,,0.00,Acu-Link.com,2013-02-10 13:52:00,
2013-02-10 08:07:00,52.9,48.2,29.76,SE,135,8.9,-999.0,84,-99.99,,,0.00,Acu-Link.com,2013-02-10 14:07:00,
2013-02-10 08:22:00,53.6,49.2,29.75,SSE,157,9.4,-999.0,85,-99.99,,,0.00,Acu-Link.com,2013-02-10 14:22:00,
2013-02-10 08:37:00,53.8,49.4,29.73,SSE,157,10.4,-999.0,85,-99.99,,,0.00,Acu-Link.com,2013-02-10 14:37:00,
2013-02-10 08:52:00,55.2,49.1,29.71,SE,135,13.0,-999.0,80,-99.99,,,0.00,Acu-Link.com,2013-02-10 14:52:00,
2013-02-10 09:07:00,56.3,49.9,29.71,SE,135,8.9,-999.0,79,-99.99,,,0.00,Acu-Link.com,2013-02-10 15:07:00,
2013-02-10 09:22:00,57.7,50.2,29.70,SSE,157,14.5,-999.0,76,-99.99,,,0.00,Acu-Link.com,2013-02-10 15:22:00,
2013-02-10 09:37:00,58.3,50.8,29.70,SE,135,9.4,-999.0,76,-99.99,,,0.00,Acu-Link.com,2013-02-10 15:37:00,
2013-02-10 09:52:00,58.1,49.9,29.69,SSE,157,11.4,-999.0,74,-99.99,,,0.00,Acu-Link.com,2013-02-10 15:52:00,
2013-02-10 10:08:00,58.8,51.6,29.69,SE,135,8.3,-999.0,77,-99.99,,,0.00,Acu-Link.com,2013-02-10 16:08:00,
2013-02-10 10:23:00,59.2,51.6,29.69,SE,135,10.4,-999.0,76,-99.99,,,0.00,Acu-Link.com,2013-02-10 16:23:00,
2013-02-10 10:38:00,59.4,51.8,29.67,SE,135,16.6,-999.0,76,-99.99,,,0.00,Acu-Link.com,2013-02-10 16:38:00,
2013-02-10 10:53:00,59.0,51.8,29.67,SSE,157,11.4,-999.0,77,-99.99,,,0.00,Acu-Link.com,2013-02-10 16:53:00,
2013-02-10 11:08:00,57.4,53.2,29.67,South,180,6.8,-999.0,86,-99.99,,,0.00,Acu-Link.com,2013-02-10 17:08:00,
2013-02-10 11:23:00,57.6,53.1,29.66,SE,135,14.5,-999.0,85,-99.99,,,0.00,Acu-Link.com,2013-02-10 17:23:00,
2013-02-10 11:38:00,56.7,55.0,29.66,South,180,6.8,-999.0,94,-99.99,,,0.00,Acu-Link.com,2013-02-10 17:38:00,
2013-02-10 11:53:00,56.5,55.1,29.67,SSW,202,4.2,-999.0,95,-99.99,,,0.00,Acu-Link.com,2013-02-10 17:53:00,
2013-02-10 12:08:00,52.7,52.4,29.69,South,180,0.0,-999.0,99,-99.99,,,0.03,Acu-Link.com,2013-02-10 18:08:00,
2013-02-10 12:24:00,52.5,-7.1,29.68,South,180,5.8,-999.0,8,-99.99,,,0.07,Acu-Link.com,2013-02-10 18:24:00,
2013-02-10 12:39:00,52.0,25.2,29.70,SSW,202,0.0,-999.0,35,-99.99,,,0.09,Acu-Link.com,2013-02-10 18:39:00,
2013-02-10 12:54:00,51.4,32.4,29.70,SSW,202,0.0,-999.0,48,-99.99,,,0.14,Acu-Link.com,2013-02-10 18:54:00,
2013-02-10 13:09:00,51.6,33.1,29.69,South,180,1.1,-999.0,49,-99.99,,,0.23,Acu-Link.com,2013-02-10 19:09:00,
2013-02-10 13:24:00,51.4,30.2,29.65,SSE,157,16.6,-999.0,44,-99.99,,,0.25,Acu-Link.com,2013-02-10 19:24:00,
2013-02-10 13:39:00,51.4,10.5,29.61,South,180,17.1,-999.0,19,-99.99,,,0.26,Acu-Link.com,2013-02-10 19:39:00,
2013-02-10 13:54:00,51.4,2.2,29.60,South,180,14.0,-999.0,13,-99.99,,,0.27,Acu-Link.com,2013-02-10 19:54:00,
2013-02-10 14:09:00,51.3,3.8,29.56,SSE,157,16.1,-999.0,14,-99.99,,,0.28,Acu-Link.com,2013-02-10 20:09:00,
2013-02-10 14:24:00,50.7,43.4,29.50,SE,135,26.4,-999.0,76,-99.99,,,0.28,Acu-Link.com,2013-02-10 20:24:00,
2013-02-10 14:40:00,51.4,-3.3,29.53,SSE,157,18.6,-999.0,10,-99.99,,,0.28,Acu-Link.com,2013-02-10 20:40:00,
2013-02-10 14:55:00,51.3,50.8,29.53,SE,135,15.5,-999.0,98,-99.99,,,0.28,Acu-Link.com,2013-02-10 20:55:00,
2013-02-10 15:10:00,51.3,50.8,29.56,SE,135,15.5,-999.0,98,-99.99,,,0.28,Acu-Link.com,2013-02-10 21:10:00,
2013-02-10 15:25:00,51.6,51.1,29.56,SSE,157,14.5,-999.0,98,-99.99,,,0.28,Acu-Link.com,2013-02-10 21:25:00,
2013-02-10 15:40:00,52.0,51.5,29.56,South,180,17.6,-999.0,98,-99.99,,,0.28,Acu-Link.com,2013-02-10 21:40:00,
2013-02-10 15:55:00,52.0,51.5,29.56,SE,135,15.5,-999.0,98,-99.99,,,0.28,Acu-Link.com,2013-02-10 21:55:00,
2013-02-10 16:11:00,52.0,51.5,29.56,SE,135,15.0,-999.0,98,-99.99,,,0.28,Acu-Link.com,2013-02-10 22:11:00,
2013-02-10 16:26:00,52.0,51.5,29.55,SSE,157,13.5,-999.0,98,-99.99,,,0.28,Acu-Link.com,2013-02-10 22:26:00,
2013-02-10 16:41:00,52.2,51.7,29.55,SSE,157,14.5,-999.0,98,-99.99,,,0.28,Acu-Link.com,2013-02-10 22:41:00,
2013-02-10 16:56:00,52.3,51.8,29.55,SE,135,12.5,-999.0,98,-99.99,,,0.28,Acu-Link.com,2013-02-10 22:56:00,
2013-02-10 17:11:00,52.5,52.0,29.54,SSE,157,12.5,-999.0,98,-99.99,,,0.28,Acu-Link.com,2013-02-10 23:11:00,
2013-02-10 17:26:00,52.5,52.0,29.53,SE,135,11.9,-999.0,98,-99.99,,,0.28,Acu-Link.com,2013-02-10 23:26:00,
2013-02-10 17:41:00,52.5,52.0,29.54,SE,135,8.9,-999.0,98,-99.99,,,0.28,Acu-Link.com,2013-02-10 23:41:00,
2013-02-10 17:56:00,52.5,52.0,29.53,SSE,157,5.8,-999.0,98,-99.99,,,0.28,Acu-Link.com,2013-02-10 23:56:00,
2013-02-10 18:12:00,52.7,48.6,29.54,SSE,157,6.3,-999.0,86,-99.99,,,0.28,Acu-Link.com,2013-02-11 00:12:00,
2013-02-10 18:27:00,52.7,-33.4,29.54,SE,135,8.9,-999.0,2,-99.99,,,0.28,Acu-Link.com,2013-02-11 00:27:00,
2013-02-10 18:42:00,53.1,-45.1,29.54,South,180,5.8,-999.0,1,-99.99,,,0.28,Acu-Link.com,2013-02-11 00:42:00,
2013-02-10 18:57:00,53.6,-20.0,29.53,South,180,3.2,-999.0,4,-99.99,,,0.28,Acu-Link.com,2013-02-11 00:57:00,
2013-02-10 19:12:00,53.6,-12.1,29.54,SSE,157,0.0,-999.0,6,-99.99,,,0.28,Acu-Link.com,2013-02-11 01:12:00,
2013-02-10 19:27:00,53.2,6.8,29.56,SSE,157,0.0,-999.0,15,-99.99,,,0.28,Acu-Link.com,2013-02-11 01:27:00,
2013-02-10 19:42:00,53.2,12.0,29.56,SSE,157,0.0,-999.0,19,-99.99,,,0.28,Acu-Link.com,2013-02-11 01:42:00,
2013-02-10 19:57:00,53.4,22.8,29.56,SSE,157,1.1,-999.0,30,-99.99,,,0.28,Acu-Link.com,2013-02-11 01:57:00,
2013-02-10 20:12:00,53.8,26.1,29.55,SSE,157,0.0,-999.0,34,-99.99,,,0.28,Acu-Link.com,2013-02-11 02:12:00,
2013-02-10 20:28:00,54.1,28.4,29.58,SSE,157,0.0,-999.0,37,-99.99,,,0.28,Acu-Link.com,2013-02-11 02:28:00,
2013-02-10 20:58:00,54.7,32.1,29.58,SSE,157,0.0,-999.0,42,-99.99,,,0.28,Acu-Link.com,2013-02-11 02:58:00,
2013-02-10 21:13:00,55.0,32.9,29.58,SE,135,0.0,-999.0,43,-99.99,,,0.28,Acu-Link.com,2013-02-11 03:13:00,
2013-02-10 21:28:00,55.0,32.9,29.58,SE,135,0.0,-999.0,43,-99.99,,,0.28,Acu-Link.com,2013-02-11 03:28:00,
2013-02-10 21:43:00,55.4,33.3,29.59,WNW,292,0.0,-999.0,43,-99.99,,,0.28,Acu-Link.com,2013-02-11 03:43:00,
2013-02-10 21:58:00,55.6,32.3,29.59,North,0,1.7,-999.0,41,-99.99,,,0.28,Acu-Link.com,2013-02-11 03:58:00,
2013-02-10 22:13:00,55.6,29.1,29.57,SSW,202,0.0,-999.0,36,-99.99,,,0.28,Acu-Link.com,2013-02-11 04:13:00,
2013-02-10 22:28:00,55.6,28.4,29.59,SSW,202,0.0,-999.0,35,-99.99,,,0.28,Acu-Link.com,2013-02-11 04:28:00,
2013-02-10 22:43:00,55.8,27.1,29.58,ESE,112,0.0,-999.0,33,-99.99,,,0.28,Acu-Link.com,2013-02-11 04:43:00,
2013-02-10 22:59:00,55.8,25.6,29.60,ESE,112,0.0,-999.0,31,-99.99,,,0.28,Acu-Link.com,2013-02-11 04:59:00,
2013-02-10 23:14:00,55.9,24.1,29.59,West,270,0.0,-999.0,29,-99.99,,,0.28,Acu-Link.com,2013-02-11 05:14:00,
2013-02-10 23:29:00,55.9,23.3,29.60,SSW,202,0.0,-999.0,28,-99.99,,,0.28,Acu-Link.com,2013-02-11 05:29:00,
2013-02-10 23:44:00,56.3,22.8,29.60,NE,45,0.0,-999.0,27,-99.99,,,0.28,Acu-Link.com,2013-02-11 05:44:00,
2013-02-10 23:59:00,56.1,15.6,29.61,East,90,0.0,-999.0,20,-99.99,,,0.28,Acu-Link.com,2013-02-11 05:59:00,